Time;durP1;ratioP1;P1;durP2;ratioP2;P2;SDS_P1;SDS_P2;PMS_P1;PMS_P2;Temp;Humidity;BMP_temperature;BMP_pressure;BME280_temperature;BME280_humidity;BME280_pressure;Samples;Min_cycle;Max_cycle;Signal;HPM_P1;HPM_P2
2022/09/25 00:00:44;;;;;;;4.55;1.35;;;;;;;;;;4997736;28;20030;-75
2022/09/25 00:03:12;;;;;;;2.03;0.98;;;;;;;;;;5002029;28;20040;-76
2022/09/25 00:05:42;;;;;;;3.30;1.08;;;;;;;;;;5025599;28;20400;-75
2022/09/25 00:08:09;;;;;;;3.53;1.05;;;;;;;;;;5006227;28;20506;-76
2022/09/25 00:10:39;;;;;;;4.18;1.20;;;;;;;;;;5003596;28;20033;-76
2022/09/25 00:13:05;;;;;;;3.28;1.23;;;;;;;;;;4998486;28;20069;-75
2022/09/25 00:15:30;;;;;;;7.45;1.60;;;;;;;;;;4998741;28;20577;-75
2022/09/25 00:17:55;;;;;;;2.42;1.00;;;;;;;;;;4999452;28;20112;-77
2022/09/25 00:20:22;;;;;;;3.80;1.40;;;;;;;;;;5006887;28;20036;-76
2022/09/25 00:22:48;;;;;;;3.38;1.00;;;;;;;;;;5001235;28;20046;-75
2022/09/25 00:25:15;;;;;;;3.33;1.20;;;;;;;;;;5003071;28;20032;-76
2022/09/25 00:27:42;;;;;;;5.10;1.30;;;;;;;;;;4997244;28;20053;-80
2022/09/25 00:30:09;;;;;;;1.88;1.02;;;;;;;;;;5003154;28;20080;-76
2022/09/25 00:32:36;;;;;;;3.08;1.10;;;;;;;;;;5002809;28;20683;-76
2022/09/25 00:35:02;;;;;;;4.93;1.27;;;;;;;;;;5004607;28;20775;-78
2022/09/25 00:37:27;;;;;;;4.55;1.30;;;;;;;;;;4997041;28;20026;-75
2022/09/25 00:39:54;;;;;;;3.05;1.05;;;;;;;;;;4996404;28;20041;-75
2022/09/25 00:42:20;;;;;;;2.85;1.30;;;;;;;;;;5002094;28;20544;-79
2022/09/25 00:44:58;;;;;;;3.42;1.27;;;;;;;;;;4999779;28;20033;-77
2022/09/25 00:47:29;;;;;;;2.58;1.23;;;;;;;;;;5001484;28;20494;-75
2022/09/25 00:49:57;;;;;;;3.70;1.25;;;;;;;;;;5013569;28;20836;-75
2022/09/25 00:52:23;;;;;;;2.47;1.38;;;;;;;;;;4998983;28;20045;-77
2022/09/25 00:54:57;;;;;;;3.65;1.35;;;;;;;;;;4985902;28;20036;-76
2022/09/25 00:57:28;;;;;;;3.45;1.50;;;;;;;;;;5033306;28;20489;-75
2022/09/25 00:59:58;;;;;;;4.90;1.50;;;;;;;;;;4996994;28;20169;-76
2022/09/25 01:02:33;;;;;;;4.50;1.50;;;;;;;;;;4996849;28;20033;-79
2022/09/25 01:05:02;;;;;;;4.47;1.50;;;;;;;;;;4998081;28;20021;-77
2022/09/25 01:07:28;;;;;;;3.58;1.20;;;;;;;;;;4999422;28;20476;-75
2022/09/25 01:10:01;;;;;;;3.30;1.30;;;;;;;;;;4998647;28;20066;-75
2022/09/25 01:12:26;;;;;;;;;;;;;;;;;;4997116;28;20359;-75
2022/09/25 01:14:52;;;;;;;4.40;1.13;;;;;;;;;;4997462;28;19941;-75
2022/09/25 01:17:32;;;;;;;4.32;1.48;;;;;;;;;;4996651;28;20057;-75
2022/09/25 01:20:35;;;;;;;3.60;1.30;;;;;;;;;;5019951;28;20125;-75
2022/09/25 01:23:39;;;;;;;;;;;;;;;;;;4997732;28;20077;-75
2022/09/25 01:26:32;;;;;;;2.25;0.95;;;;;;;;;;4984639;28;19918;-76
2022/09/25 01:29:29;;;;;;;1.77;1.00;;;;;;;;;;4996860;28;20577;-76
2022/09/25 01:32:12;;;;;;;5.88;1.45;;;;;;;;;;4957698;28;20053;-75
2022/09/25 01:34:50;;;;;;;3.30;1.30;;;;;;;;;;4988373;28;20029;-75
2022/09/25 01:37:37;;;;;;;2.30;1.30;;;;;;;;;;4996529;28;20030;-76
2022/09/25 01:40:32;;;;;;;3.25;1.13;;;;;;;;;;4999280;28;20510;-77
2022/09/25 01:43:10;;;;;;;2.75;1.40;;;;;;;;;;4999953;28;20042;-78
2022/09/25 01:45:52;;;;;;;2.38;1.30;;;;;;;;;;5026510;28;20030;-76
2022/09/25 01:48:20;;;;;;;2.05;1.20;;;;;;;;;;5028399;28;20040;-77
2022/09/25 01:50:50;;;;;;;3.45;1.35;;;;;;;;;;4995019;28;20089;-77
2022/09/25 01:53:22;;;;;;;2.92;1.20;;;;;;;;;;5002353;28;20435;-75
2022/09/25 01:55:53;;;;;;;3.00;1.30;;;;;;;;;;4995589;28;20474;-79
2022/09/25 01:58:37;;;;;;;3.17;1.52;;;;;;;;;;4994481;28;20030;-77
2022/09/25 02:01:13;;;;;;;2.80;1.30;;;;;;;;;;4997330;28;20712;-75
2022/09/25 02:03:59;;;;;;;2.63;1.20;;;;;;;;;;4994008;28;20046;-76
2022/09/25 02:06:25;;;;;;;3.05;1.20;;;;;;;;;;4994386;28;20039;-75
2022/09/25 02:09:06;;;;;;;4.47;1.23;;;;;;;;;;4998439;28;20486;-76
2022/09/25 02:11:38;;;;;;;5.70;1.10;;;;;;;;;;4997405;28;20061;-76
2022/09/25 02:14:11;;;;;;;3.40;1.33;;;;;;;;;;5016223;28;20770;-76
2022/09/25 02:16:42;;;;;;;3.53;1.33;;;;;;;;;;4996770;28;20041;-76
2022/09/25 02:22:21;;;;;;;2.42;1.65;;;;;;;;;;5001981;28;20100;-78
2022/09/25 02:25:02;;;;;;;3.17;1.37;;;;;;;;;;5001203;28;20033;-75
2022/09/25 02:27:28;;;;;;;3.17;1.38;;;;;;;;;;5030188;28;20038;-75
2022/09/25 02:29:55;;;;;;;1.88;1.20;;;;;;;;;;4999743;28;20037;-77
2022/09/25 02:32:27;;;;;;;2.30;1.30;;;;;;;;;;4999888;28;20038;-76
2022/09/25 02:34:52;;;;;;;3.57;1.40;;;;;;;;;;5001503;28;20386;-76
2022/09/25 02:37:18;;;;;;;2.55;1.40;;;;;;;;;;4999049;28;20324;-75
2022/09/25 02:39:48;;;;;;;4.75;1.63;;;;;;;;;;4992163;28;20017;-76
2022/09/25 02:42:29;;;;;;;2.45;1.52;;;;;;;;;;4997811;28;20045;-76
2022/09/25 02:45:10;;;;;;;3.30;1.60;;;;;;;;;;5005761;28;20053;-76
2022/09/25 02:47:56;;;;;;;3.67;1.50;;;;;;;;;;4999585;28;20438;-75
2022/09/25 02:50:35;;;;;;;3.85;1.50;;;;;;;;;;4999530;28;20034;-75
2022/09/25 02:53:28;;;;;;;2.30;1.50;;;;;;;;;;4999651;28;20611;-78
2022/09/25 02:56:03;;;;;;;2.75;1.55;;;;;;;;;;4998284;28;20555;-76
2022/09/25 02:58:31;;;;;;;3.85;1.80;;;;;;;;;;4997807;28;22075;-76
2022/09/25 03:01:00;;;;;;;3.47;1.63;;;;;;;;;;5004211;28;20026;-77
2022/09/25 03:03:26;;;;;;;2.80;1.73;;;;;;;;;;4998714;28;20486;-76
2022/09/25 03:05:55;;;;;;;4.28;2.30;;;;;;;;;;5011107;28;20033;-78
2022/09/25 03:08:37;;;;;;;3.85;2.00;;;;;;;;;;5000110;28;20022;-79
2022/09/25 03:11:11;;;;;;;5.35;1.80;;;;;;;;;;5002035;28;20473;-75
2022/09/25 03:13:37;;;;;;;3.42;1.80;;;;;;;;;;4998489;28;20037;-77
2022/09/25 03:16:19;;;;;;;2.67;1.50;;;;;;;;;;5034766;28;20389;-75
2022/09/25 03:18:45;;;;;;;2.10;1.13;;;;;;;;;;5000414;28;20509;-78
2022/09/25 03:21:10;;;;;;;2.45;1.30;;;;;;;;;;4991904;28;20147;-77
2022/09/25 03:23:36;;;;;;;1.67;1.00;;;;;;;;;;4999223;28;20034;-76
2022/09/25 03:26:03;;;;;;;1.67;1.08;;;;;;;;;;4997476;28;20428;-76
2022/09/25 03:28:29;;;;;;;3.05;1.20;;;;;;;;;;4998902;28;20037;-76
2022/09/25 03:31:00;;;;;;;1.90;0.80;;;;;;;;;;5000482;28;20037;-78
2022/09/25 03:33:27;;;;;;;1.73;0.90;;;;;;;;;;4997514;28;20076;-75
2022/09/25 03:36:11;;;;;;;1.50;0.90;;;;;;;;;;4998900;28;20024;-75
2022/09/25 03:38:37;;;;;;;1.88;1.00;;;;;;;;;;4992902;28;20030;-80
2022/09/25 03:41:08;;;;;;;1.95;1.10;;;;;;;;;;4992716;28;20538;-76
2022/09/25 03:43:41;;;;;;;1.77;0.90;;;;;;;;;;4997970;28;20033;-75
2022/09/25 03:46:08;;;;;;;;;;;;;;;;;;4987506;28;20482;-75
2022/09/25 03:48:34;;;;;;;1.40;0.80;;;;;;;;;;4997146;28;19937;-79
2022/09/25 03:51:00;;;;;;;1.67;0.75;;;;;;;;;;4995191;28;20022;-76
2022/09/25 03:53:26;;;;;;;1.63;0.80;;;;;;;;;;4992080;28;20044;-77
2022/09/25 03:55:53;;;;;;;1.42;0.80;;;;;;;;;;4997198;28;20589;-76
2022/09/25 03:58:18;;;;;;;1.08;0.73;;;;;;;;;;4998040;28;20394;-77
2022/09/25 04:00:45;;;;;;;1.77;0.90;;;;;;;;;;4998143;28;20030;-75
2022/09/25 04:03:11;;;;;;;1.77;0.90;;;;;;;;;;4999640;28;20034;-77
2022/09/25 04:05:37;;;;;;;1.40;0.82;;;;;;;;;;4992814;28;20445;-76
2022/09/25 04:08:03;;;;;;;1.48;0.98;;;;;;;;;;5005738;28;20065;-75
2022/09/25 04:10:29;;;;;;;1.60;1.00;;;;;;;;;;4997854;28;20076;-78
2022/09/25 04:12:54;;;;;;;2.10;1.25;;;;;;;;;;4998821;28;20034;-80
2022/09/25 04:15:23;;;;;;;1.92;1.05;;;;;;;;;;4998460;28;20066;-76
2022/09/25 04:17:49;;;;;;;1.77;1.00;;;;;;;;;;5002897;28;20044;-77
2022/09/25 04:20:14;;;;;;;2.47;1.40;;;;;;;;;;4996296;28;20065;-76
2022/09/25 04:22:40;;;;;;;2.72;1.23;;;;;;;;;;5000764;28;20082;-75
2022/09/25 04:25:06;;;;;;;1.52;1.00;;;;;;;;;;5000690;28;20088;-78
2022/09/25 04:27:32;;;;;;;2.72;1.13;;;;;;;;;;4995816;28;20026;-75
2022/09/25 04:29:57;;;;;;;2.08;1.08;;;;;;;;;;4995183;28;20096;-76
2022/09/25 04:35:07;;;;;;;0.75;0.70;;;;;;;;;;4993968;28;20049;-76
2022/09/25 04:37:32;;;;;;;1.15;0.80;;;;;;;;;;5016177;28;20025;-75
2022/09/25 04:39:57;;;;;;;1.52;0.80;;;;;;;;;;4997984;28;20036;-75
2022/09/25 04:42:24;;;;;;;2.78;1.10;;;;;;;;;;4996878;28;20091;-76
2022/09/25 04:44:54;;;;;;;1.30;0.90;;;;;;;;;;4999913;28;20545;-76
2022/09/25 04:47:24;;;;;;;1.85;1.10;;;;;;;;;;5002548;28;20033;-76
2022/09/25 04:49:51;;;;;;;1.40;0.90;;;;;;;;;;5000968;28;20488;-75
2022/09/25 04:52:18;;;;;;;1.73;1.00;;;;;;;;;;4997923;28;20260;-76
2022/09/25 04:54:44;;;;;;;1.63;0.90;;;;;;;;;;4995735;28;20382;-75
2022/09/25 04:57:17;;;;;;;2.13;1.13;;;;;;;;;;4987165;28;20037;-75
2022/09/25 04:59:43;;;;;;;1.95;1.20;;;;;;;;;;4992591;28;20124;-75
2022/09/25 05:02:09;;;;;;;1.75;0.90;;;;;;;;;;4989942;28;20030;-77
2022/09/25 05:04:35;;;;;;;2.80;1.00;;;;;;;;;;4995359;28;20061;-78
2022/09/25 05:07:00;;;;;;;2.03;1.10;;;;;;;;;;5017214;28;20029;-80
2022/09/25 05:09:25;;;;;;;2.30;1.20;;;;;;;;;;5030358;28;20473;-77
2022/09/25 05:11:51;;;;;;;4.90;0.98;;;;;;;;;;5002126;28;20034;-75
2022/09/25 05:14:16;;;;;;;1.83;1.00;;;;;;;;;;4995725;28;20626;-76
2022/09/25 05:16:42;;;;;;;2.60;0.90;;;;;;;;;;4995497;28;20033;-77
2022/09/25 05:19:07;;;;;;;2.00;1.08;;;;;;;;;;5000527;28;20025;-77
2022/09/25 05:21:33;;;;;;;2.00;1.00;;;;;;;;;;4999600;28;20046;-76
2022/09/25 05:23:58;;;;;;;1.00;0.90;;;;;;;;;;4998958;28;20397;-75
2022/09/25 05:26:25;;;;;;;1.40;0.90;;;;;;;;;;5005784;28;20076;-75
2022/09/25 05:28:50;;;;;;;0.90;0.60;;;;;;;;;;5000773;28;20026;-75
2022/09/25 05:31:17;;;;;;;0.98;0.70;;;;;;;;;;5032457;28;20030;-76
2022/09/25 05:33:43;;;;;;;0.98;0.70;;;;;;;;;;5025733;28;20026;-76
2022/09/25 05:36:09;;;;;;;1.50;1.08;;;;;;;;;;5001324;28;20030;-75
2022/09/25 05:38:37;;;;;;;1.35;0.70;;;;;;;;;;5000636;28;20053;-76
2022/09/25 05:41:07;;;;;;;1.20;0.70;;;;;;;;;;5005892;28;20053;-75
2022/09/25 05:43:36;;;;;;;1.00;0.65;;;;;;;;;;5000756;28;20432;-76
2022/09/25 05:46:02;;;;;;;1.38;0.70;;;;;;;;;;5001093;28;20533;-75
2022/09/25 05:48:27;;;;;;;2.65;0.70;;;;;;;;;;5003088;28;20083;-77
2022/09/25 05:50:54;;;;;;;1.48;0.90;;;;;;;;;;5006010;28;20056;-76
2022/09/25 05:53:19;;;;;;;1.00;0.68;;;;;;;;;;5002767;28;20490;-80
2022/09/25 05:55:53;;;;;;;2.22;0.70;;;;;;;;;;4991483;28;20030;-77
2022/09/25 05:58:19;;;;;;;1.23;0.80;;;;;;;;;;5035331;28;20029;-79
2022/09/25 06:00:45;;;;;;;1.10;0.80;;;;;;;;;;5001813;28;20037;-75
2022/09/25 06:03:10;;;;;;;1.98;0.88;;;;;;;;;;5004302;28;20034;-75
2022/09/25 06:05:36;;;;;;;1.10;0.80;;;;;;;;;;5003633;28;20037;-77
2022/09/25 06:08:02;;;;;;;1.70;0.90;;;;;;;;;;5038769;28;20121;-76
2022/09/25 06:10:28;;;;;;;1.60;1.00;;;;;;;;;;5006042;28;20117;-79
2022/09/25 06:12:57;;;;;;;1.75;0.93;;;;;;;;;;5007950;28;20079;-78
2022/09/25 06:15:24;;;;;;;2.08;1.00;;;;;;;;;;5035240;28;20094;-79
2022/09/25 06:17:50;;;;;;;2.00;1.10;;;;;;;;;;4995245;28;20036;-78
2022/09/25 06:20:16;;;;;;;1.48;0.98;;;;;;;;;;5007668;28;20030;-75
2022/09/25 06:22:43;;;;;;;2.72;1.13;;;;;;;;;;5001596;28;20017;-75
2022/09/25 06:25:09;;;;;;;3.13;1.38;;;;;;;;;;5000468;28;20132;-76
2022/09/25 06:27:35;;;;;;;2.25;1.20;;;;;;;;;;5002370;28;20355;-77
2022/09/25 06:30:01;;;;;;;2.53;1.35;;;;;;;;;;4994499;28;20022;-76
2022/09/25 06:32:27;;;;;;;2.58;1.27;;;;;;;;;;4999895;28;20052;-77
2022/09/25 06:34:52;;;;;;;3.15;1.75;;;;;;;;;;5005642;28;20029;-80
2022/09/25 06:37:17;;;;;;;2.53;1.40;;;;;;;;;;5022324;28;20513;-75
2022/09/25 06:39:43;;;;;;;2.22;1.45;;;;;;;;;;5002675;28;20029;-77
2022/09/25 06:42:08;;;;;;;2.53;1.45;;;;;;;;;;5017240;28;20026;-79
2022/09/25 06:44:33;;;;;;;2.30;1.23;;;;;;;;;;5000604;28;20125;-75
2022/09/25 06:47:00;;;;;;;1.92;1.10;;;;;;;;;;5000009;28;20025;-76
2022/09/25 06:49:26;;;;;;;2.38;1.30;;;;;;;;;;5004901;28;20565;-75
2022/09/25 06:51:52;;;;;;;3.20;1.70;;;;;;;;;;5003825;28;20034;-75
2022/09/25 06:54:17;;;;;;;3.20;1.30;;;;;;;;;;5001328;28;20040;-75
2022/09/25 06:56:43;;;;;;;2.75;1.40;;;;;;;;;;5005349;28;20026;-75
2022/09/25 06:59:08;;;;;;;3.28;1.70;;;;;;;;;;4992696;28;20037;-76
2022/09/25 07:01:34;;;;;;;2.42;1.30;;;;;;;;;;5005176;28;20060;-77
2022/09/25 07:04:02;;;;;;;2.80;1.60;;;;;;;;;;4990892;28;20474;-76
2022/09/25 07:06:30;;;;;;;4.00;1.90;;;;;;;;;;5000479;28;20441;-76
2022/09/25 07:08:56;;;;;;;3.33;2.30;;;;;;;;;;5002795;28;20152;-75
2022/09/25 07:11:23;;;;;;;4.03;2.40;;;;;;;;;;4996914;28;20525;-76
2022/09/25 07:13:51;;;;;;;4.05;2.40;;;;;;;;;;5000132;28;20438;-76
2022/09/25 07:16:18;;;;;;;4.28;2.50;;;;;;;;;;5030303;28;20470;-75
2022/09/25 07:18:45;;;;;;;5.45;2.55;;;;;;;;;;5001074;28;20029;-76
2022/09/25 07:21:16;;;;;;;6.82;2.45;;;;;;;;;;5000004;28;20050;-75
2022/09/25 07:23:42;;;;;;;5.82;2.90;;;;;;;;;;5012392;28;20027;-75
2022/09/25 07:26:15;;;;;;;4.32;2.67;;;;;;;;;;4998319;28;20419;-76
2022/09/25 07:28:41;;;;;;;;;;;;;;;;;;4999492;28;20030;-77
2022/09/25 07:31:18;;;;;;;5.32;2.47;;;;;;;;;;5013633;28;19913;-75
2022/09/25 07:33:44;;;;;;;7.43;2.65;;;;;;;;;;4995751;28;20038;-76
2022/09/25 07:36:10;;;;;;;4.55;2.50;;;;;;;;;;4999018;28;20076;-75
2022/09/25 07:38:36;;;;;;;4.70;2.10;;;;;;;;;;4997005;28;20022;-75
2022/09/25 07:41:06;;;;;;;4.25;2.30;;;;;;;;;;5002828;28;20026;-75
2022/09/25 07:43:33;;;;;;;4.97;2.75;;;;;;;;;;5000085;28;20060;-75
2022/09/25 07:45:59;;;;;;;7.47;2.58;;;;;;;;;;4999191;28;20486;-75
2022/09/25 07:48:25;;;;;;;3.55;1.88;;;;;;;;;;5003624;28;20037;-76
2022/09/25 07:50:51;;;;;;;4.53;2.25;;;;;;;;;;5005520;28;20022;-75
2022/09/25 07:53:17;;;;;;;4.82;2.08;;;;;;;;;;5005948;28;20079;-75
2022/09/25 07:55:44;;;;;;;5.25;2.05;;;;;;;;;;5008389;28;20021;-76
2022/09/25 07:58:10;;;;;;;3.35;2.00;;;;;;;;;;5000864;28;20041;-79
2022/09/25 08:00:36;;;;;;;5.55;2.53;;;;;;;;;;5002922;28;20068;-75
2022/09/25 08:03:02;;;;;;;5.35;2.13;;;;;;;;;;5000099;28;20034;-75
2022/09/25 08:05:27;;;;;;;5.38;2.40;;;;;;;;;;5008782;28;20543;-75
2022/09/25 08:07:54;;;;;;;4.40;2.33;;;;;;;;;;5004802;28;20034;-75
2022/09/25 08:10:20;;;;;;;5.85;2.50;;;;;;;;;;5006874;28;20029;-76
2022/09/25 08:12:46;;;;;;;5.93;2.60;;;;;;;;;;5008657;28;20037;-75
2022/09/25 08:15:13;;;;;;;4.32;2.38;;;;;;;;;;5010867;28;20026;-76
2022/09/25 08:17:39;;;;;;;3.95;2.08;;;;;;;;;;5009626;28;20124;-77
2022/09/25 08:20:05;;;;;;;6.65;2.33;;;;;;;;;;5002525;28;21742;-75
2022/09/25 08:22:31;;;;;;;5.10;2.08;;;;;;;;;;5002438;28;20522;-76
2022/09/25 08:24:56;;;;;;;6.00;2.03;;;;;;;;;;5000615;28;20053;-76
2022/09/25 08:27:21;;;;;;;8.10;2.10;;;;;;;;;;5001863;28;20360;-78
2022/09/25 08:29:47;;;;;;;5.07;2.13;;;;;;;;;;5012781;28;20118;-77
2022/09/25 08:32:12;;;;;;;5.25;1.85;;;;;;;;;;5006283;28;20030;-76
2022/09/25 08:34:37;;;;;;;6.07;2.10;;;;;;;;;;4999490;28;20821;-75
2022/09/25 08:37:03;;;;;;;3.78;1.73;;;;;;;;;;5031710;28;20087;-75
2022/09/25 08:39:29;;;;;;;4.65;2.03;;;;;;;;;;5000630;28;20841;-75
2022/09/25 08:41:55;;;;;;;5.53;1.92;;;;;;;;;;5015712;28;20501;-75
2022/09/25 08:44:24;;;;;;;4.43;1.77;;;;;;;;;;5000113;28;20068;-75
2022/09/25 08:50:01;;;;;;;8.43;2.33;;;;;;;;;;4998297;28;20049;-76
2022/09/25 08:52:29;;;;;;;5.68;1.60;;;;;;;;;;5004254;28;20470;-75
2022/09/25 08:54:55;;;;;;;4.30;1.58;;;;;;;;;;4999790;28;20026;-76
2022/09/25 08:57:42;;;;;;;4.35;1.70;;;;;;;;;;5000260;28;20026;-75
2022/09/25 09:00:22;;;;;;;3.88;1.60;;;;;;;;;;5001502;28;20072;-76
2022/09/25 09:02:56;;;;;;;4.25;1.40;;;;;;;;;;5000525;28;20026;-76
2022/09/25 09:05:29;;;;;;;6.13;1.50;;;;;;;;;;5000752;28;20470;-76
2022/09/25 09:08:16;;;;;;;4.35;1.23;;;;;;;;;;4999012;28;20532;-77
2022/09/25 09:10:49;;;;;;;5.50;1.23;;;;;;;;;;5000257;28;20160;-76
2022/09/25 09:13:34;;;;;;;5.68;1.60;;;;;;;;;;5008925;28;20040;-75
2022/09/25 09:16:47;;;;;;;5.82;1.15;;;;;;;;;;4995126;28;20397;-79
2022/09/25 09:19:12;;;;;;;5.15;0.90;;;;;;;;;;4991902;28;20513;-76
2022/09/25 09:21:51;;;;;;;3.58;1.00;;;;;;;;;;4993973;28;20050;-78
2022/09/25 09:24:45;;;;;;;4.55;1.10;;;;;;;;;;4998403;28;20029;-75
2022/09/25 09:27:42;;;;;;;5.13;1.20;;;;;;;;;;5000752;28;20573;-77
2022/09/25 09:30:19;;;;;;;2.08;0.90;;;;;;;;;;4998817;28;20038;-75
2022/09/25 09:33:00;;;;;;;2.67;0.90;;;;;;;;;;4997516;28;20578;-76
2022/09/25 09:35:40;;;;;;;3.40;0.80;;;;;;;;;;4997106;28;20065;-77
2022/09/25 09:38:33;;;;;;;2.25;0.65;;;;;;;;;;5000273;28;20033;-79
2022/09/25 09:41:13;;;;;;;;;;;;;;;;;;4998643;28;20028;-77
2022/09/25 09:43:45;;;;;;;2.78;0.60;;;;;;;;;;4996814;28;19991;-76
2022/09/25 09:46:21;;;;;;;3.42;0.70;;;;;;;;;;5003604;28;20049;-76
2022/09/25 09:49:08;;;;;;;2.72;0.80;;;;;;;;;;4999436;28;20109;-75
2022/09/25 09:52:01;;;;;;;2.58;0.68;;;;;;;;;;4995671;28;20616;-77
2022/09/25 09:54:34;;;;;;;;;;;;;;;;;;5002717;28;21806;-76
2022/09/25 09:57:02;;;;;;;2.58;0.55;;;;;;;;;;4999552;28;21576;-76
2022/09/25 09:59:38;;;;;;;3.22;0.70;;;;;;;;;;4996772;28;20393;-75
2022/09/25 10:02:19;;;;;;;8.50;0.70;;;;;;;;;;4998108;28;20032;-76
2022/09/25 10:04:46;;;;;;;3.22;0.80;;;;;;;;;;4995900;28;20026;-79
2022/09/25 10:07:17;;;;;;;1.85;0.90;;;;;;;;;;4992785;28;20064;-81
2022/09/25 10:09:42;;;;;;;3.47;0.80;;;;;;;;;;4990396;28;20034;-76
2022/09/25 10:12:13;;;;;;;2.78;0.75;;;;;;;;;;4985735;28;20135;-76
2022/09/25 10:14:44;;;;;;;1.25;0.70;;;;;;;;;;5002465;28;20088;-76
2022/09/25 10:17:10;;;;;;;3.53;0.60;;;;;;;;;;4996408;28;20076;-76
2022/09/25 10:19:48;;;;;;;1.17;0.60;;;;;;;;;;4994000;28;20129;-76
2022/09/25 10:22:24;;;;;;;2.63;0.60;;;;;;;;;;5000448;28;20062;-77
2022/09/25 10:25:01;;;;;;;2.55;0.70;;;;;;;;;;5000872;28;20029;-76
2022/09/25 10:27:35;;;;;;;3.10;1.00;;;;;;;;;;5024470;28;20044;-77
2022/09/25 10:30:08;;;;;;;3.75;0.77;;;;;;;;;;5008183;28;20121;-76
2022/09/25 10:32:55;;;;;;;2.28;0.65;;;;;;;;;;4990651;28;20482;-77
2022/09/25 10:35:25;;;;;;;3.00;0.63;;;;;;;;;;4989901;28;20037;-76
2022/09/25 10:37:53;;;;;;;0.85;0.50;;;;;;;;;;4999205;28;20033;-78
2022/09/25 10:40:33;;;;;;;3.25;0.68;;;;;;;;;;4996214;28;20594;-77
2022/09/25 10:43:24;;;;;;;1.65;0.77;;;;;;;;;;4998237;28;20035;-77
2022/09/25 10:46:13;;;;;;;1.70;0.60;;;;;;;;;;4997852;28;20144;-76
2022/09/25 10:51:25;;;;;;;3.30;0.80;;;;;;;;;;4997598;28;20036;-75
2022/09/25 10:53:55;;;;;;;2.33;0.70;;;;;;;;;;4998921;28;20034;-75
2022/09/25 10:56:31;;;;;;;1.90;0.68;;;;;;;;;;5005670;28;20094;-76
2022/09/25 10:59:00;;;;;;;3.10;0.80;;;;;;;;;;4998390;28;20032;-78
2022/09/25 11:01:38;;;;;;;2.90;0.60;;;;;;;;;;4997585;28;20030;-77
2022/09/25 11:04:28;;;;;;;2.38;0.82;;;;;;;;;;4996083;28;20034;-77
2022/09/25 11:07:00;;;;;;;3.33;0.70;;;;;;;;;;5004374;28;20405;-76
2022/09/25 11:09:27;;;;;;;2.22;0.70;;;;;;;;;;4994275;28;20104;-76
2022/09/25 11:12:23;;;;;;;2.88;0.73;;;;;;;;;;5029774;28;20152;-76
2022/09/25 11:15:04;;;;;;;4.13;0.60;;;;;;;;;;4982814;28;20049;-77
2022/09/25 11:17:38;;;;;;;1.98;0.70;;;;;;;;;;4994907;28;20056;-77
2022/09/25 11:20:28;;;;;;;1.17;0.60;;;;;;;;;;4995045;28;20033;-77
2022/09/25 11:23:15;;;;;;;1.85;0.60;;;;;;;;;;4999859;28;20068;-77
2022/09/25 11:26:05;;;;;;;2.15;0.82;;;;;;;;;;4989278;28;20041;-77
2022/09/25 11:29:03;;;;;;;2.75;0.85;;;;;;;;;;4998351;28;20036;-79
2022/09/25 11:31:36;;;;;;;5.65;1.23;;;;;;;;;;4992685;28;20494;-76
2022/09/25 11:34:18;;;;;;;2.97;1.10;;;;;;;;;;4999218;28;20026;-77
2022/09/25 11:36:47;;;;;;;0.98;0.60;;;;;;;;;;4998569;28;20030;-75
2022/09/25 11:42:39;;;;;;;2.67;0.60;;;;;;;;;;5007293;28;20045;-77
2022/09/25 11:45:35;;;;;;;0.88;0.60;;;;;;;;;;4992368;28;20037;-76
2022/09/25 11:48:37;;;;;;;1.23;0.50;;;;;;;;;;4999130;28;20049;-76
2022/09/25 11:51:27;;;;;;;0.55;0.50;;;;;;;;;;5001864;28;20508;-76
2022/09/25 11:53:59;;;;;;;1.67;1.27;;;;;;;;;;5003618;28;20033;-76
2022/09/25 11:56:32;;;;;;;4.17;1.00;;;;;;;;;;5010924;28;20422;-76
2022/09/25 11:59:21;;;;;;;2.55;0.70;;;;;;;;;;4993808;28;20477;-80
2022/09/25 12:02:10;;;;;;;3.95;0.70;;;;;;;;;;4993797;28;20128;-76
2022/09/25 12:05:13;;;;;;;1.27;0.60;;;;;;;;;;5028040;28;20046;-76
2022/09/25 12:08:08;;;;;;;1.43;0.60;;;;;;;;;;4993048;28;20069;-79
2022/09/25 12:10:46;;;;;;;1.73;0.63;;;;;;;;;;5000422;28;20690;-76
2022/09/25 12:13:20;;;;;;;1.98;0.77;;;;;;;;;;4991801;28;20034;-77
2022/09/25 12:16:18;;;;;;;3.03;0.60;;;;;;;;;;5002221;28;20554;-77
2022/09/25 12:18:55;;;;;;;2.65;0.75;;;;;;;;;;4993607;28;20069;-76
2022/09/25 12:21:35;;;;;;;3.67;0.82;;;;;;;;;;4998333;28;20160;-76
2022/09/25 12:24:11;;;;;;;1.30;0.60;;;;;;;;;;5007090;28;20057;-76
2022/09/25 12:27:03;;;;;;;1.02;0.57;;;;;;;;;;5005284;28;20105;-76
2022/09/25 12:29:31;;;;;;;1.80;0.75;;;;;;;;;;4998017;28;20057;-76
2022/09/25 12:32:26;;;;;;;1.98;0.57;;;;;;;;;;4999836;28;20038;-76
2022/09/25 12:35:25;;;;;;;3.25;0.95;;;;;;;;;;4992588;28;20045;-76
2022/09/25 12:38:14;;;;;;;1.45;0.50;;;;;;;;;;5031471;28;20037;-76
2022/09/25 12:40:48;;;;;;;1.77;0.60;;;;;;;;;;5000008;28;20072;-76
2022/09/25 12:43:35;;;;;;;1.70;0.68;;;;;;;;;;5002613;28;20489;-76
2022/09/25 12:46:11;;;;;;;1.77;0.68;;;;;;;;;;4999479;28;20494;-75
2022/09/25 12:48:45;;;;;;;1.73;0.77;;;;;;;;;;5006882;28;20032;-77
2022/09/25 12:51:24;;;;;;;1.50;0.70;;;;;;;;;;5024346;28;20034;-75
2022/09/25 12:53:57;;;;;;;1.65;0.60;;;;;;;;;;4995790;28;20076;-77
2022/09/25 12:56:56;;;;;;;1.38;0.60;;;;;;;;;;4992116;28;20486;-75
2022/09/25 12:59:36;;;;;;;1.88;0.55;;;;;;;;;;5016877;28;20494;-76
2022/09/25 13:02:29;;;;;;;0.73;0.50;;;;;;;;;;4993213;28;20034;-78
2022/09/25 13:05:11;;;;;;;3.75;0.77;;;;;;;;;;4994158;28;20124;-75
2022/09/25 13:07:48;;;;;;;2.85;0.70;;;;;;;;;;4989771;28;20041;-76
2022/09/25 13:10:25;;;;;;;2.58;0.75;;;;;;;;;;5005047;28;20370;-75
2022/09/25 13:12:54;;;;;;;1.65;0.77;;;;;;;;;;4990461;28;21070;-78
2022/09/25 13:15:32;;;;;;;2.40;0.70;;;;;;;;;;5010218;28;20128;-79
2022/09/25 13:17:58;;;;;;;3.00;0.70;;;;;;;;;;4993291;28;20145;-75
2022/09/25 13:20:30;;;;;;;4.22;0.90;;;;;;;;;;4994000;28;20030;-75
2022/09/25 13:23:13;;;;;;;2.45;0.80;;;;;;;;;;5009967;28;20180;-76
2022/09/25 13:25:45;;;;;;;1.55;0.73;;;;;;;;;;4992687;28;20034;-76
2022/09/25 13:28:18;;;;;;;2.92;0.63;;;;;;;;;;4996421;28;20033;-77
2022/09/25 13:31:05;;;;;;;;;;;;;;;;;;4991991;28;20052;-76
2022/09/25 13:33:51;;;;;;;1.48;0.60;;;;;;;;;;4998110;28;19917;-76
2022/09/25 13:36:24;;;;;;;4.93;0.90;;;;;;;;;;5003494;28;20065;-75
2022/09/25 13:41:49;;;;;;;2.08;0.60;;;;;;;;;;4995523;28;20568;-77
2022/09/25 13:44:40;;;;;;;3.20;0.60;;;;;;;;;;4992917;28;20104;-76
2022/09/25 13:47:38;;;;;;;2.35;0.60;;;;;;;;;;4998531;28;20034;-77
2022/09/25 13:50:09;;;;;;;0.77;0.43;;;;;;;;;;4994735;28;20046;-75
2022/09/25 13:52:34;;;;;;;2.83;0.50;;;;;;;;;;5008663;28;20034;-75
2022/09/25 13:55:12;;;;;;;1.05;0.60;;;;;;;;;;4998333;28;20036;-76
2022/09/25 13:57:59;;;;;;;2.58;0.45;;;;;;;;;;4997139;28;20516;-75
2022/09/25 14:00:36;;;;;;;1.60;0.63;;;;;;;;;;5016585;28;20360;-75
2022/09/25 14:03:04;;;;;;;1.30;0.50;;;;;;;;;;5000985;28;20129;-76
2022/09/25 14:05:34;;;;;;;1.30;0.60;;;;;;;;;;5004473;28;20038;-76
2022/09/25 14:08:15;;;;;;;1.50;0.70;;;;;;;;;;5004847;28;20033;-76
2022/09/25 14:10:47;;;;;;;2.53;0.65;;;;;;;;;;5009245;28;20033;-75
2022/09/25 14:13:14;;;;;;;1.08;0.60;;;;;;;;;;5008322;28;20103;-76
2022/09/25 14:15:41;;;;;;;2.53;0.50;;;;;;;;;;5009852;28;20026;-76
2022/09/25 14:18:14;;;;;;;2.22;0.57;;;;;;;;;;5004732;28;20120;-75
2022/09/25 14:20:43;;;;;;;1.48;0.70;;;;;;;;;;5035116;28;20046;-77
2022/09/25 14:23:32;;;;;;;1.52;0.70;;;;;;;;;;5002943;28;20510;-75
2022/09/25 14:26:01;;;;;;;3.03;0.68;;;;;;;;;;5003006;28;20080;-77
2022/09/25 14:28:32;;;;;;;1.35;0.70;;;;;;;;;;4999507;28;20040;-75
2022/09/25 14:31:13;;;;;;;3.83;0.90;;;;;;;;;;4994528;28;20034;-76
2022/09/25 14:33:57;;;;;;;2.53;0.80;;;;;;;;;;5000606;28;20034;-76
2022/09/25 14:36:43;;;;;;;1.60;0.55;;;;;;;;;;5012201;28;20025;-78
2022/09/25 14:39:47;;;;;;;2.95;0.68;;;;;;;;;;5030166;28;20486;-75
2022/09/25 14:42:23;;;;;;;2.38;0.60;;;;;;;;;;5019841;28;20050;-76
2022/09/25 14:45:18;;;;;;;3.83;0.70;;;;;;;;;;5004173;28;20022;-77
2022/09/25 14:47:47;;;;;;;1.83;0.60;;;;;;;;;;4999904;28;21724;-78
2022/09/25 14:50:22;;;;;;;5.70;0.77;;;;;;;;;;5001686;28;20475;-76
2022/09/25 14:52:52;;;;;;;1.10;0.70;;;;;;;;;;4996280;28;20044;-79
2022/09/25 14:55:20;;;;;;;1.67;0.57;;;;;;;;;;5002569;28;20778;-76
2022/09/25 14:57:47;;;;;;;1.35;0.77;;;;;;;;;;5004501;28;20053;-75
2022/09/25 15:00:16;;;;;;;1.80;0.70;;;;;;;;;;5003489;28;20021;-75
2022/09/25 15:02:45;;;;;;;1.77;0.60;;;;;;;;;;5004447;28;20069;-76
2022/09/25 15:05:25;;;;;;;2.30;0.70;;;;;;;;;;4999632;28;20029;-75
2022/09/25 15:07:51;;;;;;;1.92;0.80;;;;;;;;;;4999500;28;20490;-78
2022/09/25 15:10:26;;;;;;;1.05;0.60;;;;;;;;;;5027701;28;20038;-76
2022/09/25 15:12:52;;;;;;;1.38;0.60;;;;;;;;;;5000048;28;20385;-75
2022/09/25 15:15:20;;;;;;;0.88;0.63;;;;;;;;;;4999638;28;20429;-78
2022/09/25 15:17:58;;;;;;;1.65;0.70;;;;;;;;;;4989788;28;20435;-76
2022/09/25 15:20:27;;;;;;;1.90;0.60;;;;;;;;;;4998414;28;20034;-75
2022/09/25 15:23:05;;;;;;;0.70;0.60;;;;;;;;;;5002186;28;20050;-77
2022/09/25 15:25:40;;;;;;;2.25;0.50;;;;;;;;;;4995681;28;20510;-75
2022/09/25 15:28:08;;;;;;;2.10;0.60;;;;;;;;;;4997373;28;20065;-76
2022/09/25 15:30:36;;;;;;;2.33;0.60;;;;;;;;;;5006887;28;20030;-75
2022/09/25 15:33:02;;;;;;;1.85;0.70;;;;;;;;;;5000173;28;20026;-75
2022/09/25 15:35:29;;;;;;;1.48;0.70;;;;;;;;;;4999118;28;20512;-75
2022/09/25 15:38:27;;;;;;;1.75;0.52;;;;;;;;;;4996226;28;20068;-78